sensor_id;sensor_type;location;lat;lon;timestamp;pressure;altitude;pressure_sealevel;temperature;humidity
40872;BME280;26591;43.264;26.940;2022-12-07T00:01:37;99012.91;;;6.44;82.90
40872;BME280;26591;43.264;26.940;2022-12-07T00:04:08;99019.53;;;6.48;82.92
40872;BME280;26591;43.264;26.940;2022-12-07T00:06:39;99018.13;;;6.64;82.34
40872;BME280;26591;43.264;26.940;2022-12-07T00:09:09;99011.25;;;6.43;82.24
40872;BME280;26591;43.264;26.940;2022-12-07T00:11:35;99018.00;;;6.55;82.12
40872;BME280;26591;43.264;26.940;2022-12-07T00:14:03;99020.91;;;6.62;82.69
40872;BME280;26591;43.264;26.940;2022-12-07T00:16:32;99024.50;;;6.51;82.42
40872;BME280;26591;43.264;26.940;2022-12-07T00:18:58;99029.34;;;6.56;82.36
40872;BME280;26591;43.264;26.940;2022-12-07T00:21:30;99024.34;;;6.63;82.38
40872;BME280;26591;43.264;26.940;2022-12-07T00:23:56;99025.59;;;6.68;82.14
40872;BME280;26591;43.264;26.940;2022-12-07T00:26:26;99027.00;;;6.43;82.95
40872;BME280;26591;43.264;26.940;2022-12-07T00:29:00;99023.41;;;6.54;82.59
40872;BME280;26591;43.264;26.940;2022-12-07T00:31:29;99023.69;;;6.41;82.36
40872;BME280;26591;43.264;26.940;2022-12-07T00:33:55;99014.97;;;6.40;82.03
40872;BME280;26591;43.264;26.940;2022-12-07T00:36:23;99016.78;;;6.40;81.82
40872;BME280;26591;43.264;26.940;2022-12-07T00:38:49;99017.31;;;6.44;82.31
40872;BME280;26591;43.264;26.940;2022-12-07T00:41:17;99009.16;;;6.37;82.36
40872;BME280;26591;43.264;26.940;2022-12-07T00:43:43;99012.91;;;6.24;82.43
40872;BME280;26591;43.264;26.940;2022-12-07T00:46:10;99016.78;;;6.20;82.80
40872;BME280;26591;43.264;26.940;2022-12-07T00:48:36;99016.91;;;6.09;82.35
40872;BME280;26591;43.264;26.940;2022-12-07T00:51:02;99011.66;;;6.09;81.52
40872;BME280;26591;43.264;26.940;2022-12-07T00:53:29;99008.75;;;6.02;82.71
40872;BME280;26591;43.264;26.940;2022-12-07T00:55:55;99009.59;;;6.03;81.87
40872;BME280;26591;43.264;26.940;2022-12-07T00:58:23;99012.50;;;6.09;82.13
40872;BME280;26591;43.264;26.940;2022-12-07T01:00:50;99014.84;;;6.03;81.57
40872;BME280;26591;43.264;26.940;2022-12-07T01:03:16;99012.78;;;6.06;81.93
40872;BME280;26591;43.264;26.940;2022-12-07T01:05:53;99017.28;;;5.94;81.95
40872;BME280;26591;43.264;26.940;2022-12-07T01:08:20;99013.84;;;6.04;82.37
40872;BME280;26591;43.264;26.940;2022-12-07T01:10:46;99010.25;;;5.95;82.00
40872;BME280;26591;43.264;26.940;2022-12-07T01:13:12;99005.53;;;5.99;82.16
40872;BME280;26591;43.264;26.940;2022-12-07T01:15:42;99004.84;;;5.96;82.60
40872;BME280;26591;43.264;26.940;2022-12-07T01:18:08;99004.56;;;5.90;82.65
40872;BME280;26591;43.264;26.940;2022-12-07T01:20:34;99003.75;;;5.79;82.98
40872;BME280;26591;43.264;26.940;2022-12-07T01:23:00;98998.47;;;5.89;83.09
40872;BME280;26591;43.264;26.940;2022-12-07T01:25:25;98996.00;;;5.98;83.69
40872;BME280;26591;43.264;26.940;2022-12-07T01:27:51;99005.28;;;5.92;83.62
40872;BME280;26591;43.264;26.940;2022-12-07T01:30:16;98999.06;;;5.93;83.65
40872;BME280;26591;43.264;26.940;2022-12-07T01:32:42;98992.81;;;5.74;83.98
40872;BME280;26591;43.264;26.940;2022-12-07T01:35:08;98995.78;;;6.01;84.17
40872;BME280;26591;43.264;26.940;2022-12-07T01:37:38;98992.94;;;5.92;84.07
40872;BME280;26591;43.264;26.940;2022-12-07T01:40:05;98993.22;;;5.89;84.28
40872;BME280;26591;43.264;26.940;2022-12-07T01:42:32;98996.28;;;5.94;84.17
40872;BME280;26591;43.264;26.940;2022-12-07T01:51:21;98974.72;;;5.91;84.18
40872;BME280;26591;43.264;26.940;2022-12-07T01:53:47;98979.69;;;5.84;84.42
40872;BME280;26591;43.264;26.940;2022-12-07T01:56:17;98976.91;;;5.95;83.86
40872;BME280;26591;43.264;26.940;2022-12-07T01:58:44;98980.25;;;5.98;83.93
40872;BME280;26591;43.264;26.940;2022-12-07T02:01:10;98974.84;;;5.99;83.52
40872;BME280;26591;43.264;26.940;2022-12-07T02:03:39;98977.88;;;5.94;83.63
40872;BME280;26591;43.264;26.940;2022-12-07T02:06:06;98978.34;;;6.00;83.99
40872;BME280;26591;43.264;26.940;2022-12-07T02:08:34;98974.19;;;6.07;84.18
40872;BME280;26591;43.264;26.940;2022-12-07T02:11:03;98965.31;;;6.28;83.68
40872;BME280;26591;43.264;26.940;2022-12-07T02:13:32;98968.91;;;6.46;83.60
40872;BME280;26591;43.264;26.940;2022-12-07T02:29:25;98965.25;;;6.67;82.09
40872;BME280;26591;43.264;26.940;2022-12-07T02:32:01;98969.00;;;6.64;82.52
40872;BME280;26591;43.264;26.940;2022-12-07T02:40:09;98976.44;;;6.69;82.29
40872;BME280;26591;43.264;26.940;2022-12-07T02:42:42;98964.97;;;6.70;82.47
40872;BME280;26591;43.264;26.940;2022-12-07T02:45:14;98972.38;;;6.84;82.68
40872;BME280;26591;43.264;26.940;2022-12-07T02:47:43;98972.22;;;6.86;82.14
40872;BME280;26591;43.264;26.940;2022-12-07T02:50:09;98966.97;;;6.86;81.73
40872;BME280;26591;43.264;26.940;2022-12-07T02:52:34;98962.31;;;6.70;82.26
40872;BME280;26591;43.264;26.940;2022-12-07T02:55:00;98960.94;;;6.76;81.62
40872;BME280;26591;43.264;26.940;2022-12-07T02:57:45;98962.03;;;6.83;81.99
40872;BME280;26591;43.264;26.940;2022-12-07T03:00:17;98951.34;;;6.84;80.91
40872;BME280;26591;43.264;26.940;2022-12-07T03:05:49;98951.13;;;7.06;80.73
40872;BME280;26591;43.264;26.940;2022-12-07T03:11:10;98953.94;;;7.22;80.05
40872;BME280;26591;43.264;26.940;2022-12-07T03:13:55;98947.28;;;7.28;80.07
40872;BME280;26591;43.264;26.940;2022-12-07T03:16:41;98950.72;;;7.28;80.35
40872;BME280;26591;43.264;26.940;2022-12-07T03:19:13;98956.38;;;7.33;79.92
40872;BME280;26591;43.264;26.940;2022-12-07T03:22:04;98965.25;;;7.32;79.71
40872;BME280;26591;43.264;26.940;2022-12-07T03:24:31;98971.84;;;7.18;79.75
40872;BME280;26591;43.264;26.940;2022-12-07T03:27:15;98972.31;;;7.04;80.41
40872;BME280;26591;43.264;26.940;2022-12-07T03:29:51;98978.06;;;6.90;80.63
40872;BME280;26591;43.264;26.940;2022-12-07T03:37:53;98974.00;;;7.05;80.79
40872;BME280;26591;43.264;26.940;2022-12-07T03:40:32;98973.31;;;7.03;80.98
40872;BME280;26591;43.264;26.940;2022-12-07T03:43:03;98975.44;;;6.90;80.63
40872;BME280;26591;43.264;26.940;2022-12-07T03:45:39;98975.69;;;6.96;80.62
40872;BME280;26591;43.264;26.940;2022-12-07T03:48:10;98980.16;;;7.14;80.09
40872;BME280;26591;43.264;26.940;2022-12-07T03:51:34;98980.28;;;6.84;80.41
40872;BME280;26591;43.264;26.940;2022-12-07T03:53:45;98976.88;;;6.74;80.05
40872;BME280;26591;43.264;26.940;2022-12-07T03:56:13;98969.81;;;6.65;80.73
40872;BME280;26591;43.264;26.940;2022-12-07T03:58:40;98979.88;;;6.79;80.89
40872;BME280;26591;43.264;26.940;2022-12-07T04:01:06;98977.81;;;6.83;80.45
40872;BME280;26591;43.264;26.940;2022-12-07T04:03:32;98975.28;;;6.91;81.22
40872;BME280;26591;43.264;26.940;2022-12-07T04:05:57;98969.66;;;6.76;81.56
40872;BME280;26591;43.264;26.940;2022-12-07T04:08:24;98967.06;;;6.66;82.22
40872;BME280;26591;43.264;26.940;2022-12-07T04:10:50;98969.19;;;6.43;82.56
40872;BME280;26591;43.264;26.940;2022-12-07T04:13:15;98969.94;;;6.73;82.14
40872;BME280;26591;43.264;26.940;2022-12-07T04:15:41;98974.72;;;6.97;82.01
40872;BME280;26591;43.264;26.940;2022-12-07T04:18:07;98969.38;;;7.07;81.58
40872;BME280;26591;43.264;26.940;2022-12-07T04:20:32;98968.63;;;6.87;81.97
40872;BME280;26591;43.264;26.940;2022-12-07T04:22:58;98961.31;;;6.91;81.91
40872;BME280;26591;43.264;26.940;2022-12-07T04:25:23;98965.66;;;6.72;81.71
40872;BME280;26591;43.264;26.940;2022-12-07T04:27:49;98964.09;;;6.79;82.09
40872;BME280;26591;43.264;26.940;2022-12-07T04:30:14;98961.97;;;6.93;82.31
40872;BME280;26591;43.264;26.940;2022-12-07T04:32:40;98955.25;;;7.08;82.50
40872;BME280;26591;43.264;26.940;2022-12-07T04:35:06;98950.44;;;7.03;82.54
40872;BME280;26591;43.264;26.940;2022-12-07T04:37:32;98952.88;;;6.77;82.29
40872;BME280;26591;43.264;26.940;2022-12-07T04:39:57;98965.56;;;6.92;81.99
40872;BME280;26591;43.264;26.940;2022-12-07T04:42:23;98964.31;;;6.48;82.73
40872;BME280;26591;43.264;26.940;2022-12-07T04:44:48;98964.22;;;6.10;83.06
40872;BME280;26591;43.264;26.940;2022-12-07T04:47:14;98971.28;;;6.39;82.84
40872;BME280;26591;43.264;26.940;2022-12-07T04:49:40;98970.25;;;6.60;82.43
40872;BME280;26591;43.264;26.940;2022-12-07T04:52:05;98964.81;;;6.71;82.57
40872;BME280;26591;43.264;26.940;2022-12-07T04:54:30;98975.56;;;6.88;81.83
40872;BME280;26591;43.264;26.940;2022-12-07T04:56:56;98967.56;;;6.80;81.88
40872;BME280;26591;43.264;26.940;2022-12-07T04:59:21;98964.94;;;6.03;81.63
40872;BME280;26591;43.264;26.940;2022-12-07T05:01:47;98966.53;;;5.74;83.80
40872;BME280;26591;43.264;26.940;2022-12-07T05:04:12;98968.06;;;5.96;83.78
40872;BME280;26591;43.264;26.940;2022-12-07T05:06:38;98971.97;;;6.12;83.46
40872;BME280;26591;43.264;26.940;2022-12-07T05:09:04;98970.69;;;5.77;83.50
40872;BME280;26591;43.264;26.940;2022-12-07T05:11:30;98976.56;;;5.40;83.99
40872;BME280;26591;43.264;26.940;2022-12-07T05:14:22;98974.81;;;5.60;83.79
40872;BME280;26591;43.264;26.940;2022-12-07T05:16:49;98976.91;;;5.76;83.73
40872;BME280;26591;43.264;26.940;2022-12-07T05:19:16;98978.44;;;5.78;83.50
40872;BME280;26591;43.264;26.940;2022-12-07T05:21:41;98969.09;;;4.94;83.21
40872;BME280;26591;43.264;26.940;2022-12-07T05:24:09;98974.84;;;4.57;83.75
40872;BME280;26591;43.264;26.940;2022-12-07T05:26:35;98967.28;;;4.42;84.55
40872;BME280;26591;43.264;26.940;2022-12-07T05:29:01;98973.63;;;4.40;84.58
40872;BME280;26591;43.264;26.940;2022-12-07T05:31:27;98973.19;;;4.35;84.56
40872;BME280;26591;43.264;26.940;2022-12-07T05:33:53;98969.38;;;3.85;86.36
40872;BME280;26591;43.264;26.940;2022-12-07T05:36:19;98964.53;;;3.80;86.86
40872;BME280;26591;43.264;26.940;2022-12-07T05:38:45;98968.63;;;4.16;86.89
40872;BME280;26591;43.264;26.940;2022-12-07T05:41:14;98973.19;;;4.35;87.23
40872;BME280;26591;43.264;26.940;2022-12-07T05:43:58;98975.19;;;4.73;87.09
40872;BME280;26591;43.264;26.940;2022-12-07T05:46:24;98979.38;;;5.07;86.44
40872;BME280;26591;43.264;26.940;2022-12-07T05:48:49;98973.31;;;5.16;86.34
40872;BME280;26591;43.264;26.940;2022-12-07T05:51:15;98968.53;;;5.31;85.17
40872;BME280;26591;43.264;26.940;2022-12-07T05:53:40;98974.91;;;5.39;84.74
40872;BME280;26591;43.264;26.940;2022-12-07T05:56:06;98963.19;;;5.62;84.36
40872;BME280;26591;43.264;26.940;2022-12-07T05:58:32;98971.09;;;5.82;84.15
40872;BME280;26591;43.264;26.940;2022-12-07T06:01:16;98973.16;;;5.88;82.58
40872;BME280;26591;43.264;26.940;2022-12-07T06:03:44;98972.47;;;5.96;82.75
40872;BME280;26591;43.264;26.940;2022-12-07T06:06:10;98964.50;;;6.07;82.48
40872;BME280;26591;43.264;26.940;2022-12-07T06:08:36;98979.44;;;6.17;81.51
40872;BME280;26591;43.264;26.940;2022-12-07T06:11:01;98975.56;;;6.11;81.25
40872;BME280;26591;43.264;26.940;2022-12-07T06:13:46;98985.38;;;6.09;81.70
40872;BME280;26591;43.264;26.940;2022-12-07T06:16:11;98982.88;;;5.98;81.59
40872;BME280;26591;43.264;26.940;2022-12-07T06:18:37;98981.66;;;6.02;81.96
40872;BME280;26591;43.264;26.940;2022-12-07T06:21:02;98980.97;;;6.09;81.62
40872;BME280;26591;43.264;26.940;2022-12-07T06:23:46;98991.22;;;6.03;81.77
40872;BME280;26591;43.264;26.940;2022-12-07T06:26:13;98988.72;;;6.11;82.86
40872;BME280;26591;43.264;26.940;2022-12-07T06:28:39;98989.25;;;6.24;82.27
40872;BME280;26591;43.264;26.940;2022-12-07T06:31:05;98990.06;;;6.25;82.40
40872;BME280;26591;43.264;26.940;2022-12-07T06:33:31;98998.81;;;6.25;82.23
40872;BME280;26591;43.264;26.940;2022-12-07T06:35:56;99002.38;;;6.44;82.72
40872;BME280;26591;43.264;26.940;2022-12-07T06:38:22;98998.91;;;6.44;82.67
40872;BME280;26591;43.264;26.940;2022-12-07T06:40:47;98996.97;;;6.55;83.65
40872;BME280;26591;43.264;26.940;2022-12-07T06:43:13;98989.88;;;6.66;83.08
40872;BME280;26591;43.264;26.940;2022-12-07T06:45:40;98991.69;;;6.75;83.31
40872;BME280;26591;43.264;26.940;2022-12-07T06:48:05;99004.91;;;6.93;83.78
40872;BME280;26591;43.264;26.940;2022-12-07T06:50:31;98995.94;;;7.14;82.95
40872;BME280;26591;43.264;26.940;2022-12-07T06:52:56;98991.25;;;7.17;83.83
40872;BME280;26591;43.264;26.940;2022-12-07T06:55:22;98990.75;;;7.32;82.89
40872;BME280;26591;43.264;26.940;2022-12-07T06:57:47;98996.97;;;7.41;82.36
40872;BME280;26591;43.264;26.940;2022-12-07T07:00:13;98991.09;;;7.19;82.41
40872;BME280;26591;43.264;26.940;2022-12-07T07:02:39;98995.84;;;7.06;83.14
40872;BME280;26591;43.264;26.940;2022-12-07T07:05:04;99003.00;;;7.69;84.71
40872;BME280;26591;43.264;26.940;2022-12-07T07:07:30;98997.53;;;7.81;84.16
40872;BME280;26591;43.264;26.940;2022-12-07T07:09:55;99002.50;;;7.84;82.66
40872;BME280;26591;43.264;26.940;2022-12-07T07:12:21;99006.84;;;7.75;82.70
40872;BME280;26591;43.264;26.940;2022-12-07T07:14:46;99006.91;;;7.93;82.73
40872;BME280;26591;43.264;26.940;2022-12-07T07:17:12;99010.69;;;7.81;82.07
40872;BME280;26591;43.264;26.940;2022-12-07T07:19:38;99004.69;;;7.88;82.03
40872;BME280;26591;43.264;26.940;2022-12-07T07:22:04;99010.50;;;7.92;82.33
40872;BME280;26591;43.264;26.940;2022-12-07T07:24:29;99019.56;;;8.07;81.81
40872;BME280;26591;43.264;26.940;2022-12-07T07:26:57;99019.69;;;8.06;81.82
40872;BME280;26591;43.264;26.940;2022-12-07T07:29:23;99016.59;;;7.92;82.30
40872;BME280;26591;43.264;26.940;2022-12-07T07:31:48;99015.16;;;7.98;82.47
40872;BME280;26591;43.264;26.940;2022-12-07T07:34:14;99013.81;;;8.12;81.80
40872;BME280;26591;43.264;26.940;2022-12-07T07:36:39;99003.75;;;8.07;82.36
40872;BME280;26591;43.264;26.940;2022-12-07T07:39:05;99003.97;;;8.14;82.59
40872;BME280;26591;43.264;26.940;2022-12-07T07:41:31;99005.94;;;8.38;82.28
40872;BME280;26591;43.264;26.940;2022-12-07T07:43:56;99006.84;;;8.47;83.14
40872;BME280;26591;43.264;26.940;2022-12-07T07:46:22;99005.59;;;8.51;82.27
40872;BME280;26591;43.264;26.940;2022-12-07T07:48:47;99007.03;;;8.09;82.80
40872;BME280;26591;43.264;26.940;2022-12-07T07:51:16;99012.53;;;7.98;83.08
40872;BME280;26591;43.264;26.940;2022-12-07T07:53:41;99014.69;;;7.39;83.90
40872;BME280;26591;43.264;26.940;2022-12-07T07:56:07;99010.28;;;7.57;84.50
40872;BME280;26591;43.264;26.940;2022-12-07T07:58:32;99012.13;;;6.81;86.36
40872;BME280;26591;43.264;26.940;2022-12-07T08:01:04;99012.31;;;7.17;85.06
40872;BME280;26591;43.264;26.940;2022-12-07T08:03:29;99016.25;;;7.31;85.44
40872;BME280;26591;43.264;26.940;2022-12-07T08:05:55;99010.25;;;7.39;84.77
40872;BME280;26591;43.264;26.940;2022-12-07T08:08:21;99012.78;;;7.59;84.18
40872;BME280;26591;43.264;26.940;2022-12-07T08:10:46;99018.59;;;7.62;83.44
40872;BME280;26591;43.264;26.940;2022-12-07T08:13:13;99022.38;;;7.96;83.21
40872;BME280;26591;43.264;26.940;2022-12-07T08:15:43;99019.09;;;7.94;82.45
40872;BME280;26591;43.264;26.940;2022-12-07T08:18:08;99020.81;;;8.03;82.53
40872;BME280;26591;43.264;26.940;2022-12-07T08:20:35;99009.47;;;7.57;83.48
40872;BME280;26591;43.264;26.940;2022-12-07T08:23:01;99013.78;;;7.76;83.69
40872;BME280;26591;43.264;26.940;2022-12-07T08:25:27;99018.47;;;8.00;83.12
40872;BME280;26591;43.264;26.940;2022-12-07T08:27:53;99026.16;;;8.12;83.23
40872;BME280;26591;43.264;26.940;2022-12-07T08:30:20;99032.84;;;8.24;82.71
40872;BME280;26591;43.264;26.940;2022-12-07T08:32:46;99015.69;;;7.84;82.34
40872;BME280;26591;43.264;26.940;2022-12-07T08:35:12;99020.00;;;8.21;81.73
40872;BME280;26591;43.264;26.940;2022-12-07T08:37:38;99018.31;;;8.38;82.01
40872;BME280;26591;43.264;26.940;2022-12-07T08:40:05;99017.63;;;8.72;82.02
40872;BME280;26591;43.264;26.940;2022-12-07T08:42:31;99017.66;;;8.80;81.04
40872;BME280;26591;43.264;26.940;2022-12-07T08:45:07;99016.72;;;8.90;80.09
40872;BME280;26591;43.264;26.940;2022-12-07T08:47:39;99018.59;;;8.97;79.35
40872;BME280;26591;43.264;26.940;2022-12-07T08:50:07;99010.94;;;9.21;78.83
40872;BME280;26591;43.264;26.940;2022-12-07T08:52:34;99015.91;;;9.24;77.79
40872;BME280;26591;43.264;26.940;2022-12-07T08:55:01;99015.53;;;9.10;76.84
40872;BME280;26591;43.264;26.940;2022-12-07T08:57:28;99005.03;;;9.19;77.02
40872;BME280;26591;43.264;26.940;2022-12-07T08:59:55;99005.44;;;9.49;77.28
40872;BME280;26591;43.264;26.940;2022-12-07T09:02:20;98998.78;;;9.79;76.52
40872;BME280;26591;43.264;26.940;2022-12-07T09:04:46;98992.38;;;9.98;75.26
40872;BME280;26591;43.264;26.940;2022-12-07T09:07:12;98993.69;;;10.11;74.88
40872;BME280;26591;43.264;26.940;2022-12-07T09:09:37;98998.16;;;10.35;73.78
40872;BME280;26591;43.264;26.940;2022-12-07T09:12:03;98991.25;;;10.50;73.31
40872;BME280;26591;43.264;26.940;2022-12-07T09:14:29;98996.34;;;10.68;72.56
40872;BME280;26591;43.264;26.940;2022-12-07T09:16:54;98982.28;;;10.76;71.20
40872;BME280;26591;43.264;26.940;2022-12-07T09:19:20;98986.88;;;10.99;70.98
40872;BME280;26591;43.264;26.940;2022-12-07T09:21:45;98980.72;;;11.07;70.46
40872;BME280;26591;43.264;26.940;2022-12-07T09:24:12;98979.53;;;11.09;69.73
40872;BME280;26591;43.264;26.940;2022-12-07T09:26:38;98972.59;;;11.08;69.18
40872;BME280;26591;43.264;26.940;2022-12-07T09:29:05;98964.19;;;10.96;68.74
40872;BME280;26591;43.264;26.940;2022-12-07T09:31:31;98962.00;;;11.08;69.23
40872;BME280;26591;43.264;26.940;2022-12-07T09:33:58;98962.06;;;11.32;68.23
40872;BME280;26591;43.264;26.940;2022-12-07T09:36:24;98959.13;;;11.58;67.17
40872;BME280;26591;43.264;26.940;2022-12-07T09:38:50;98957.44;;;11.88;66.90
40872;BME280;26591;43.264;26.940;2022-12-07T09:41:16;98954.25;;;11.93;66.11
40872;BME280;26591;43.264;26.940;2022-12-07T09:43:41;98946.22;;;11.55;66.48
40872;BME280;26591;43.264;26.940;2022-12-07T09:46:13;98946.56;;;11.83;66.14
40872;BME280;26591;43.264;26.940;2022-12-07T09:48:40;98939.91;;;11.56;66.70
40872;BME280;26591;43.264;26.940;2022-12-07T09:51:22;98935.84;;;11.45;66.50
40872;BME280;26591;43.264;26.940;2022-12-07T09:53:48;98928.91;;;11.04;67.46
40872;BME280;26591;43.264;26.940;2022-12-07T09:56:15;98922.44;;;10.59;69.40
40872;BME280;26591;43.264;26.940;2022-12-07T09:58:42;98922.63;;;10.07;70.08
40872;BME280;26591;43.264;26.940;2022-12-07T10:03:35;98930.06;;;9.96;71.59
40872;BME280;26591;43.264;26.940;2022-12-07T10:06:04;98917.91;;;9.27;73.69
40872;BME280;26591;43.264;26.940;2022-12-07T10:08:31;98920.13;;;9.73;73.76
40872;BME280;26591;43.264;26.940;2022-12-07T10:10:57;98915.38;;;9.17;75.04
40872;BME280;26591;43.264;26.940;2022-12-07T10:13:38;98906.88;;;8.89;75.84
40872;BME280;26591;43.264;26.940;2022-12-07T10:16:05;98914.09;;;9.21;76.10
40872;BME280;26591;43.264;26.940;2022-12-07T10:18:41;98909.66;;;9.38;75.90
40872;BME280;26591;43.264;26.940;2022-12-07T10:21:30;98908.09;;;9.62;75.80
40872;BME280;26591;43.264;26.940;2022-12-07T10:26:37;98913.03;;;10.15;73.88
40872;BME280;26591;43.264;26.940;2022-12-07T10:29:22;98904.31;;;9.98;74.21
40872;BME280;26591;43.264;26.940;2022-12-07T10:34:29;98895.81;;;10.52;74.16
40872;BME280;26591;43.264;26.940;2022-12-07T10:37:17;98886.31;;;10.82;72.84
40872;BME280;26591;43.264;26.940;2022-12-07T10:39:55;98882.00;;;10.81;72.68
40872;BME280;26591;43.264;26.940;2022-12-07T10:47:45;98879.38;;;11.68;71.51
40872;BME280;26591;43.264;26.940;2022-12-07T11:04:50;98867.56;;;12.17;67.40
40872;BME280;26591;43.264;26.940;2022-12-07T11:10:19;98863.16;;;12.24;67.06
40872;BME280;26591;43.264;26.940;2022-12-07T11:12:59;98859.97;;;12.59;66.71
40872;BME280;26591;43.264;26.940;2022-12-07T11:18:26;98847.09;;;12.56;66.05
40872;BME280;26591;43.264;26.940;2022-12-07T11:21:27;98849.56;;;12.57;65.74
40872;BME280;26591;43.264;26.940;2022-12-07T11:32:26;98838.69;;;11.99;67.24
40872;BME280;26591;43.264;26.940;2022-12-07T11:37:37;98849.91;;;12.54;66.76
40872;BME280;26591;43.264;26.940;2022-12-07T11:40:11;98839.13;;;12.41;65.81
40872;BME280;26591;43.264;26.940;2022-12-07T11:42:49;98834.16;;;12.38;65.99
40872;BME280;26591;43.264;26.940;2022-12-07T11:45:26;98838.13;;;12.27;66.42
40872;BME280;26591;43.264;26.940;2022-12-07T12:00:52;98828.69;;;12.69;64.90
40872;BME280;26591;43.264;26.940;2022-12-07T12:03:29;98821.81;;;12.45;65.76
40872;BME280;26591;43.264;26.940;2022-12-07T12:05:58;98819.19;;;12.45;64.87
40872;BME280;26591;43.264;26.940;2022-12-07T12:08:30;98813.78;;;12.38;64.41
40872;BME280;26591;43.264;26.940;2022-12-07T12:13:43;98808.69;;;11.83;66.44
40872;BME280;26591;43.264;26.940;2022-12-07T12:19:24;98807.44;;;11.71;67.94
40872;BME280;26591;43.264;26.940;2022-12-07T12:21:57;98798.88;;;10.91;70.18
40872;BME280;26591;43.264;26.940;2022-12-07T12:24:26;98804.53;;;11.19;69.62
40872;BME280;26591;43.264;26.940;2022-12-07T12:27:04;98801.16;;;11.49;68.92
40872;BME280;26591;43.264;26.940;2022-12-07T12:42:48;98795.00;;;11.71;67.86
40872;BME280;26591;43.264;26.940;2022-12-07T12:45:21;98798.59;;;11.79;66.79
40872;BME280;26591;43.264;26.940;2022-12-07T12:50:48;98786.91;;;11.88;66.72
40872;BME280;26591;43.264;26.940;2022-12-07T12:58:38;98786.00;;;11.96;66.69
40872;BME280;26591;43.264;26.940;2022-12-07T13:04:00;98777.19;;;12.03;66.83
40872;BME280;26591;43.264;26.940;2022-12-07T13:08:55;98781.56;;;12.26;66.02
40872;BME280;26591;43.264;26.940;2022-12-07T13:11:34;98773.97;;;12.38;65.57
40872;BME280;26591;43.264;26.940;2022-12-07T13:17:10;98779.44;;;12.36;66.01
40872;BME280;26591;43.264;26.940;2022-12-07T13:27:37;98772.84;;;12.62;65.84
40872;BME280;26591;43.264;26.940;2022-12-07T13:30:14;98775.56;;;12.69;65.54
40872;BME280;26591;43.264;26.940;2022-12-07T13:32:40;98767.84;;;12.89;68.79
40872;BME280;26591;43.264;26.940;2022-12-07T13:37:53;98763.41;;;12.96;66.37
40872;BME280;26591;43.264;26.940;2022-12-07T13:40:21;98763.41;;;12.96;65.09
40872;BME280;26591;43.264;26.940;2022-12-07T13:42:46;98762.38;;;12.97;65.47
40872;BME280;26591;43.264;26.940;2022-12-07T13:45:32;98758.28;;;12.95;64.97
40872;BME280;26591;43.264;26.940;2022-12-07T13:48:43;98769.13;;;12.93;64.31
40872;BME280;26591;43.264;26.940;2022-12-07T13:51:17;98770.91;;;12.71;65.36
40872;BME280;26591;43.264;26.940;2022-12-07T13:53:51;98778.41;;;12.67;66.12
40872;BME280;26591;43.264;26.940;2022-12-07T13:56:27;98781.06;;;12.67;65.59
40872;BME280;26591;43.264;26.940;2022-12-07T13:58:53;98776.59;;;12.68;65.95
40872;BME280;26591;43.264;26.940;2022-12-07T14:01:19;98780.91;;;12.54;65.80
40872;BME280;26591;43.264;26.940;2022-12-07T14:03:45;98776.72;;;12.45;66.48
40872;BME280;26591;43.264;26.940;2022-12-07T14:08:45;98780.94;;;12.39;66.55
40872;BME280;26591;43.264;26.940;2022-12-07T14:11:29;98778.09;;;12.11;66.64
40872;BME280;26591;43.264;26.940;2022-12-07T14:14:00;98785.69;;;12.14;66.91
40872;BME280;26591;43.264;26.940;2022-12-07T14:16:36;98777.53;;;12.15;66.69
40872;BME280;26591;43.264;26.940;2022-12-07T14:22:07;98782.47;;;12.03;66.86
40872;BME280;26591;43.264;26.940;2022-12-07T14:24:42;98780.19;;;12.00;67.16
40872;BME280;26591;43.264;26.940;2022-12-07T14:27:17;98780.19;;;12.00;66.85
40872;BME280;26591;43.264;26.940;2022-12-07T14:29:45;98776.88;;;11.98;67.01
40872;BME280;26591;43.264;26.940;2022-12-07T14:32:24;98773.53;;;12.04;66.77
40872;BME280;26591;43.264;26.940;2022-12-07T14:34:58;98774.88;;;12.00;67.11
40872;BME280;26591;43.264;26.940;2022-12-07T14:37:24;98769.44;;;11.94;67.19
40872;BME280;26591;43.264;26.940;2022-12-07T14:39:50;98770.16;;;11.87;67.19
40872;BME280;26591;43.264;26.940;2022-12-07T14:42:16;98773.72;;;11.80;67.05
40872;BME280;26591;43.264;26.940;2022-12-07T14:44:42;98763.94;;;11.80;67.43
40872;BME280;26591;43.264;26.940;2022-12-07T14:47:11;98759.59;;;11.64;68.79
40872;BME280;26591;43.264;26.940;2022-12-07T14:49:36;98764.75;;;11.66;69.15
40872;BME280;26591;43.264;26.940;2022-12-07T14:52:03;98765.75;;;11.65;68.88
40872;BME280;26591;43.264;26.940;2022-12-07T14:54:31;98766.75;;;11.64;69.11
40872;BME280;26591;43.264;26.940;2022-12-07T14:56:58;98763.66;;;11.60;69.01
40872;BME280;26591;43.264;26.940;2022-12-07T14:59:23;98763.69;;;11.52;69.07
40872;BME280;26591;43.264;26.940;2022-12-07T15:01:49;98770.78;;;11.36;69.81
40872;BME280;26591;43.264;26.940;2022-12-07T15:04:15;98763.66;;;11.37;70.13
40872;BME280;26591;43.264;26.940;2022-12-07T15:06:40;98764.22;;;11.32;70.71
40872;BME280;26591;43.264;26.940;2022-12-07T15:09:10;98766.88;;;11.32;70.43
40872;BME280;26591;43.264;26.940;2022-12-07T15:11:36;98760.84;;;11.15;70.62
40872;BME280;26591;43.264;26.940;2022-12-07T15:14:02;98757.84;;;10.95;71.92
40872;BME280;26591;43.264;26.940;2022-12-07T15:16:34;98761.06;;;11.05;72.10
40872;BME280;26591;43.264;26.940;2022-12-07T15:19:02;98768.00;;;11.06;72.13
40872;BME280;26591;43.264;26.940;2022-12-07T15:21:28;98764.25;;;11.01;72.37
40872;BME280;26591;43.264;26.940;2022-12-07T15:23:54;98763.59;;;10.98;72.59
40872;BME280;26591;43.264;26.940;2022-12-07T15:26:19;98772.38;;;10.99;72.37
40872;BME280;26591;43.264;26.940;2022-12-07T15:28:45;98769.63;;;10.84;72.75
40872;BME280;26591;43.264;26.940;2022-12-07T15:31:14;98773.03;;;10.69;72.82
40872;BME280;26591;43.264;26.940;2022-12-07T15:33:40;98764.22;;;10.37;73.67